sensor_id;sensor_type;location;lat;lon;timestamp;P1;durP1;ratioP1;P2;durP2;ratioP2
21301;SDS011;10810;48.270;9.996;2023-03-21T00:00:59;7.20;;;3.00;;
21301;SDS011;10810;48.270;9.996;2023-03-21T00:03:30;7.63;;;3.20;;
21301;SDS011;10810;48.270;9.996;2023-03-21T00:05:57;6.27;;;2.87;;
21301;SDS011;10810;48.270;9.996;2023-03-21T00:08:25;7.20;;;3.47;;
21301;SDS011;10810;48.270;9.996;2023-03-21T00:10:54;8.77;;;3.30;;
21301;SDS011;10810;48.270;9.996;2023-03-21T00:13:22;6.33;;;2.70;;
21301;SDS011;10810;48.270;9.996;2023-03-21T00:15:50;6.20;;;2.87;;
21301;SDS011;10810;48.270;9.996;2023-03-21T00:18:19;6.73;;;3.40;;
21301;SDS011;10810;48.270;9.996;2023-03-21T00:20:58;6.87;;;3.00;;
21301;SDS011;10810;48.270;9.996;2023-03-21T00:23:26;11.67;;;2.93;;
21301;SDS011;10810;48.270;9.996;2023-03-21T00:25:56;10.27;;;2.90;;
21301;SDS011;10810;48.270;9.996;2023-03-21T00:28:25;4.73;;;2.47;;
21301;SDS011;10810;48.270;9.996;2023-03-21T00:30:55;4.70;;;2.33;;
21301;SDS011;10810;48.270;9.996;2023-03-21T00:33:25;4.83;;;2.67;;
21301;SDS011;10810;48.270;9.996;2023-03-21T00:35:54;5.73;;;2.67;;
21301;SDS011;10810;48.270;9.996;2023-03-21T00:38:23;4.83;;;2.27;;
21301;SDS011;10810;48.270;9.996;2023-03-21T00:40:50;4.90;;;2.60;;
21301;SDS011;10810;48.270;9.996;2023-03-21T00:43:17;5.90;;;2.40;;
21301;SDS011;10810;48.270;9.996;2023-03-21T00:45:47;5.63;;;2.37;;
21301;SDS011;10810;48.270;9.996;2023-03-21T00:48:15;5.17;;;2.40;;
21301;SDS011;10810;48.270;9.996;2023-03-21T00:50:43;6.97;;;2.37;;
21301;SDS011;10810;48.270;9.996;2023-03-21T00:56:12;6.63;;;2.70;;
21301;SDS011;10810;48.270;9.996;2023-03-21T00:58:39;5.03;;;2.53;;
21301;SDS011;10810;48.270;9.996;2023-03-21T01:01:06;5.20;;;2.47;;
21301;SDS011;10810;48.270;9.996;2023-03-21T01:03:33;7.00;;;2.50;;
21301;SDS011;10810;48.270;9.996;2023-03-21T01:06:07;5.60;;;2.40;;
21301;SDS011;10810;48.270;9.996;2023-03-21T01:08:39;6.83;;;2.20;;
21301;SDS011;10810;48.270;9.996;2023-03-21T01:11:09;5.47;;;2.10;;
21301;SDS011;10810;48.270;9.996;2023-03-21T01:13:37;6.43;;;2.33;;
21301;SDS011;10810;48.270;9.996;2023-03-21T01:16:05;3.60;;;1.87;;
21301;SDS011;10810;48.270;9.996;2023-03-21T01:18:36;5.00;;;2.13;;
21301;SDS011;10810;48.270;9.996;2023-03-21T01:21:16;5.00;;;2.00;;
21301;SDS011;10810;48.270;9.996;2023-03-21T01:23:45;5.00;;;2.07;;
21301;SDS011;10810;48.270;9.996;2023-03-21T01:26:12;5.60;;;2.20;;
21301;SDS011;10810;48.270;9.996;2023-03-21T01:28:42;7.20;;;2.23;;
21301;SDS011;10810;48.270;9.996;2023-03-21T01:31:13;4.47;;;2.10;;
21301;SDS011;10810;48.270;9.996;2023-03-21T01:33:43;4.40;;;2.17;;
21301;SDS011;10810;48.270;9.996;2023-03-21T01:36:14;4.87;;;2.00;;
21301;SDS011;10810;48.270;9.996;2023-03-21T01:38:42;6.07;;;2.20;;
21301;SDS011;10810;48.270;9.996;2023-03-21T01:41:24;5.97;;;2.73;;
21301;SDS011;10810;48.270;9.996;2023-03-21T01:43:53;4.63;;;2.30;;
21301;SDS011;10810;48.270;9.996;2023-03-21T01:46:25;6.10;;;2.30;;
21301;SDS011;10810;48.270;9.996;2023-03-21T01:49:03;5.70;;;2.30;;
21301;SDS011;10810;48.270;9.996;2023-03-21T01:51:41;4.67;;;2.30;;
21301;SDS011;10810;48.270;9.996;2023-03-21T01:54:12;6.60;;;2.57;;
21301;SDS011;10810;48.270;9.996;2023-03-21T01:56:43;5.07;;;2.40;;
21301;SDS011;10810;48.270;9.996;2023-03-21T01:59:13;4.13;;;2.03;;
21301;SDS011;10810;48.270;9.996;2023-03-21T02:01:48;6.70;;;1.80;;
21301;SDS011;10810;48.270;9.996;2023-03-21T02:04:18;4.40;;;2.00;;
21301;SDS011;10810;48.270;9.996;2023-03-21T02:06:53;6.47;;;2.73;;
21301;SDS011;10810;48.270;9.996;2023-03-21T02:09:27;5.20;;;2.17;;
21301;SDS011;10810;48.270;9.996;2023-03-21T02:12:00;5.23;;;2.10;;
21301;SDS011;10810;48.270;9.996;2023-03-21T02:14:27;7.00;;;2.27;;
21301;SDS011;10810;48.270;9.996;2023-03-21T02:16:59;5.00;;;2.07;;
21301;SDS011;10810;48.270;9.996;2023-03-21T02:19:42;4.80;;;2.30;;
21301;SDS011;10810;48.270;9.996;2023-03-21T02:22:58;6.10;;;2.30;;
21301;SDS011;10810;48.270;9.996;2023-03-21T02:25:45;4.17;;;2.40;;
21301;SDS011;10810;48.270;9.996;2023-03-21T02:28:47;6.20;;;2.60;;
21301;SDS011;10810;48.270;9.996;2023-03-21T02:31:22;5.37;;;2.33;;
21301;SDS011;10810;48.270;9.996;2023-03-21T02:34:02;5.57;;;2.50;;
21301;SDS011;10810;48.270;9.996;2023-03-21T02:37:03;3.47;;;1.87;;
21301;SDS011;10810;48.270;9.996;2023-03-21T02:39:47;4.23;;;2.17;;
21301;SDS011;10810;48.270;9.996;2023-03-21T02:42:20;4.67;;;2.10;;
21301;SDS011;10810;48.270;9.996;2023-03-21T02:44:56;5.87;;;2.27;;
21301;SDS011;10810;48.270;9.996;2023-03-21T02:47:27;5.37;;;2.30;;
21301;SDS011;10810;48.270;9.996;2023-03-21T02:50:02;5.73;;;2.10;;
21301;SDS011;10810;48.270;9.996;2023-03-21T02:52:34;4.57;;;2.10;;
21301;SDS011;10810;48.270;9.996;2023-03-21T02:55:03;4.00;;;2.10;;
21301;SDS011;10810;48.270;9.996;2023-03-21T02:57:37;4.10;;;2.17;;
21301;SDS011;10810;48.270;9.996;2023-03-21T03:00:07;3.23;;;1.80;;
21301;SDS011;10810;48.270;9.996;2023-03-21T03:02:37;5.33;;;1.77;;
21301;SDS011;10810;48.270;9.996;2023-03-21T03:05:13;4.60;;;1.90;;
21301;SDS011;10810;48.270;9.996;2023-03-21T03:07:47;4.97;;;2.20;;
21301;SDS011;10810;48.270;9.996;2023-03-21T03:10:29;3.67;;;1.90;;
21301;SDS011;10810;48.270;9.996;2023-03-21T03:13:10;3.80;;;2.00;;
21301;SDS011;10810;48.270;9.996;2023-03-21T03:15:49;5.07;;;2.00;;
21301;SDS011;10810;48.270;9.996;2023-03-21T03:18:28;4.53;;;2.13;;
21301;SDS011;10810;48.270;9.996;2023-03-21T03:21:04;3.47;;;1.70;;
21301;SDS011;10810;48.270;9.996;2023-03-21T03:23:39;5.37;;;2.27;;
21301;SDS011;10810;48.270;9.996;2023-03-21T03:26:10;3.80;;;1.67;;
21301;SDS011;10810;48.270;9.996;2023-03-21T03:28:43;6.97;;;2.27;;
21301;SDS011;10810;48.270;9.996;2023-03-21T03:31:15;4.13;;;1.97;;
21301;SDS011;10810;48.270;9.996;2023-03-21T03:33:52;3.33;;;1.80;;
21301;SDS011;10810;48.270;9.996;2023-03-21T03:36:23;5.40;;;1.87;;
21301;SDS011;10810;48.270;9.996;2023-03-21T03:38:55;3.27;;;1.77;;
21301;SDS011;10810;48.270;9.996;2023-03-21T03:41:24;5.97;;;1.90;;
21301;SDS011;10810;48.270;9.996;2023-03-21T03:43:55;2.43;;;1.50;;
21301;SDS011;10810;48.270;9.996;2023-03-21T03:46:29;4.23;;;1.73;;
21301;SDS011;10810;48.270;9.996;2023-03-21T03:49:03;5.67;;;1.67;;
21301;SDS011;10810;48.270;9.996;2023-03-21T03:51:35;4.27;;;1.90;;
21301;SDS011;10810;48.270;9.996;2023-03-21T03:54:10;3.37;;;1.73;;
21301;SDS011;10810;48.270;9.996;2023-03-21T03:56:38;5.73;;;1.90;;
21301;SDS011;10810;48.270;9.996;2023-03-21T03:59:06;3.63;;;1.40;;
21301;SDS011;10810;48.270;9.996;2023-03-21T04:01:33;6.13;;;1.73;;
21301;SDS011;10810;48.270;9.996;2023-03-21T04:04:02;3.47;;;1.87;;
21301;SDS011;10810;48.270;9.996;2023-03-21T04:06:29;6.60;;;1.83;;
21301;SDS011;10810;48.270;9.996;2023-03-21T04:09:01;3.40;;;1.83;;
21301;SDS011;10810;48.270;9.996;2023-03-21T04:11:31;4.27;;;1.93;;
21301;SDS011;10810;48.270;9.996;2023-03-21T04:13:58;4.33;;;1.70;;
21301;SDS011;10810;48.270;9.996;2023-03-21T04:16:25;5.97;;;1.90;;
21301;SDS011;10810;48.270;9.996;2023-03-21T04:18:52;4.30;;;2.20;;
21301;SDS011;10810;48.270;9.996;2023-03-21T04:21:19;2.80;;;1.53;;
21301;SDS011;10810;48.270;9.996;2023-03-21T04:23:46;4.13;;;2.10;;
21301;SDS011;10810;48.270;9.996;2023-03-21T04:26:14;8.83;;;1.93;;
21301;SDS011;10810;48.270;9.996;2023-03-21T04:28:43;4.60;;;1.80;;
21301;SDS011;10810;48.270;9.996;2023-03-21T04:31:10;3.60;;;2.10;;
21301;SDS011;10810;48.270;9.996;2023-03-21T04:33:37;3.73;;;1.73;;
21301;SDS011;10810;48.270;9.996;2023-03-21T04:36:05;4.53;;;2.03;;
21301;SDS011;10810;48.270;9.996;2023-03-21T04:38:51;3.97;;;2.10;;
21301;SDS011;10810;48.270;9.996;2023-03-21T04:41:19;4.23;;;2.00;;
21301;SDS011;10810;48.270;9.996;2023-03-21T04:43:47;5.63;;;2.17;;
21301;SDS011;10810;48.270;9.996;2023-03-21T04:46:14;3.63;;;1.90;;
21301;SDS011;10810;48.270;9.996;2023-03-21T04:48:41;6.03;;;2.10;;
21301;SDS011;10810;48.270;9.996;2023-03-21T04:51:08;3.90;;;2.07;;
21301;SDS011;10810;48.270;9.996;2023-03-21T04:53:35;4.57;;;2.40;;
21301;SDS011;10810;48.270;9.996;2023-03-21T04:56:03;4.60;;;1.97;;
21301;SDS011;10810;48.270;9.996;2023-03-21T04:58:31;5.43;;;2.20;;
21301;SDS011;10810;48.270;9.996;2023-03-21T05:01:00;3.83;;;1.90;;
21301;SDS011;10810;48.270;9.996;2023-03-21T05:03:29;4.70;;;2.10;;
21301;SDS011;10810;48.270;9.996;2023-03-21T05:05:58;4.23;;;2.13;;
21301;SDS011;10810;48.270;9.996;2023-03-21T05:08:25;5.47;;;2.10;;
21301;SDS011;10810;48.270;9.996;2023-03-21T05:10:53;5.67;;;2.20;;
21301;SDS011;10810;48.270;9.996;2023-03-21T05:13:20;5.97;;;2.10;;
21301;SDS011;10810;48.270;9.996;2023-03-21T05:15:47;3.87;;;2.00;;
21301;SDS011;10810;48.270;9.996;2023-03-21T05:18:15;5.73;;;2.27;;
21301;SDS011;10810;48.270;9.996;2023-03-21T05:20:49;4.87;;;2.33;;
21301;SDS011;10810;48.270;9.996;2023-03-21T05:23:18;4.97;;;2.20;;
21301;SDS011;10810;48.270;9.996;2023-03-21T05:25:45;4.80;;;2.20;;
21301;SDS011;10810;48.270;9.996;2023-03-21T05:28:12;5.43;;;2.20;;
21301;SDS011;10810;48.270;9.996;2023-03-21T05:30:42;5.53;;;2.20;;
21301;SDS011;10810;48.270;9.996;2023-03-21T05:33:10;4.10;;;2.20;;
21301;SDS011;10810;48.270;9.996;2023-03-21T05:35:38;4.60;;;2.00;;
21301;SDS011;10810;48.270;9.996;2023-03-21T05:38:05;6.60;;;2.50;;
21301;SDS011;10810;48.270;9.996;2023-03-21T05:40:33;4.50;;;2.30;;
21301;SDS011;10810;48.270;9.996;2023-03-21T05:43:00;5.70;;;2.53;;
21301;SDS011;10810;48.270;9.996;2023-03-21T05:45:29;4.97;;;2.13;;
21301;SDS011;10810;48.270;9.996;2023-03-21T05:47:57;6.40;;;2.47;;
21301;SDS011;10810;48.270;9.996;2023-03-21T05:50:24;5.90;;;2.47;;
21301;SDS011;10810;48.270;9.996;2023-03-21T05:52:53;5.43;;;2.20;;
21301;SDS011;10810;48.270;9.996;2023-03-21T05:55:21;5.70;;;2.67;;
21301;SDS011;10810;48.270;9.996;2023-03-21T05:57:55;5.20;;;2.30;;
21301;SDS011;10810;48.270;9.996;2023-03-21T06:00:24;6.53;;;2.10;;
21301;SDS011;10810;48.270;9.996;2023-03-21T06:02:59;4.10;;;2.13;;
21301;SDS011;10810;48.270;9.996;2023-03-21T06:05:27;5.40;;;2.00;;
21301;SDS011;10810;48.270;9.996;2023-03-21T06:07:56;4.23;;;1.93;;
21301;SDS011;10810;48.270;9.996;2023-03-21T06:10:24;4.87;;;2.20;;
21301;SDS011;10810;48.270;9.996;2023-03-21T06:12:51;4.27;;;2.00;;
21301;SDS011;10810;48.270;9.996;2023-03-21T06:15:18;3.63;;;2.03;;
21301;SDS011;10810;48.270;9.996;2023-03-21T06:17:46;6.57;;;2.07;;
21301;SDS011;10810;48.270;9.996;2023-03-21T06:20:13;6.03;;;2.30;;
21301;SDS011;10810;48.270;9.996;2023-03-21T06:22:40;5.70;;;2.40;;
21301;SDS011;10810;48.270;9.996;2023-03-21T06:25:09;4.93;;;2.43;;
21301;SDS011;10810;48.270;9.996;2023-03-21T06:27:36;4.80;;;2.00;;
21301;SDS011;10810;48.270;9.996;2023-03-21T06:30:03;4.97;;;2.20;;
21301;SDS011;10810;48.270;9.996;2023-03-21T06:32:32;5.43;;;2.07;;
21301;SDS011;10810;48.270;9.996;2023-03-21T06:34:59;5.27;;;2.27;;
21301;SDS011;10810;48.270;9.996;2023-03-21T06:37:26;8.57;;;2.70;;
21301;SDS011;10810;48.270;9.996;2023-03-21T06:39:53;6.00;;;2.63;;
21301;SDS011;10810;48.270;9.996;2023-03-21T06:42:21;5.10;;;2.63;;
21301;SDS011;10810;48.270;9.996;2023-03-21T06:44:48;7.80;;;2.50;;
21301;SDS011;10810;48.270;9.996;2023-03-21T06:47:15;5.07;;;2.30;;
21301;SDS011;10810;48.270;9.996;2023-03-21T06:49:42;4.67;;;2.40;;
21301;SDS011;10810;48.270;9.996;2023-03-21T06:52:10;7.47;;;2.80;;
21301;SDS011;10810;48.270;9.996;2023-03-21T06:54:39;9.63;;;2.83;;
21301;SDS011;10810;48.270;9.996;2023-03-21T06:57:06;8.50;;;2.90;;
21301;SDS011;10810;48.270;9.996;2023-03-21T06:59:35;6.17;;;2.93;;
21301;SDS011;10810;48.270;9.996;2023-03-21T07:02:02;9.03;;;3.10;;
21301;SDS011;10810;48.270;9.996;2023-03-21T07:04:29;7.13;;;3.07;;
21301;SDS011;10810;48.270;9.996;2023-03-21T07:06:56;7.20;;;2.93;;
21301;SDS011;10810;48.270;9.996;2023-03-21T07:09:27;8.60;;;3.57;;
21301;SDS011;10810;48.270;9.996;2023-03-21T07:11:54;5.63;;;3.33;;
21301;SDS011;10810;48.270;9.996;2023-03-21T07:14:22;9.87;;;3.80;;
21301;SDS011;10810;48.270;9.996;2023-03-21T07:16:51;7.83;;;3.60;;
21301;SDS011;10810;48.270;9.996;2023-03-21T07:19:20;8.40;;;3.77;;
21301;SDS011;10810;48.270;9.996;2023-03-21T07:21:47;9.33;;;3.83;;
21301;SDS011;10810;48.270;9.996;2023-03-21T07:24:14;9.37;;;3.90;;
21301;SDS011;10810;48.270;9.996;2023-03-21T07:26:41;9.77;;;3.80;;
21301;SDS011;10810;48.270;9.996;2023-03-21T07:29:10;9.63;;;4.20;;
21301;SDS011;10810;48.270;9.996;2023-03-21T07:31:47;7.57;;;3.50;;
21301;SDS011;10810;48.270;9.996;2023-03-21T07:34:21;8.07;;;3.30;;
21301;SDS011;10810;48.270;9.996;2023-03-21T07:36:48;10.77;;;4.20;;
21301;SDS011;10810;48.270;9.996;2023-03-21T07:39:15;8.03;;;3.43;;
21301;SDS011;10810;48.270;9.996;2023-03-21T07:41:43;8.90;;;3.93;;
21301;SDS011;10810;48.270;9.996;2023-03-21T07:44:10;8.33;;;3.70;;
21301;SDS011;10810;48.270;9.996;2023-03-21T07:46:37;9.73;;;3.67;;
21301;SDS011;10810;48.270;9.996;2023-03-21T07:49:06;9.43;;;3.93;;
21301;SDS011;10810;48.270;9.996;2023-03-21T07:51:33;8.97;;;3.80;;
21301;SDS011;10810;48.270;9.996;2023-03-21T07:54:11;10.50;;;4.30;;
21301;SDS011;10810;48.270;9.996;2023-03-21T07:57:10;8.93;;;3.73;;
21301;SDS011;10810;48.270;9.996;2023-03-21T07:59:41;7.83;;;3.70;;
21301;SDS011;10810;48.270;9.996;2023-03-21T08:02:12;8.63;;;4.10;;
21301;SDS011;10810;48.270;9.996;2023-03-21T08:04:44;11.63;;;4.73;;
21301;SDS011;10810;48.270;9.996;2023-03-21T08:07:12;10.40;;;3.90;;
21301;SDS011;10810;48.270;9.996;2023-03-21T08:09:39;9.83;;;4.20;;
21301;SDS011;10810;48.270;9.996;2023-03-21T08:12:06;9.43;;;3.90;;
21301;SDS011;10810;48.270;9.996;2023-03-21T08:14:49;11.07;;;4.30;;
21301;SDS011;10810;48.270;9.996;2023-03-21T08:17:16;10.43;;;4.10;;
21301;SDS011;10810;48.270;9.996;2023-03-21T08:19:43;8.70;;;3.80;;
21301;SDS011;10810;48.270;9.996;2023-03-21T08:22:10;10.20;;;3.93;;
21301;SDS011;10810;48.270;9.996;2023-03-21T08:27:28;9.83;;;3.73;;
21301;SDS011;10810;48.270;9.996;2023-03-21T08:35:28;8.13;;;3.60;;
21301;SDS011;10810;48.270;9.996;2023-03-21T08:38:27;9.00;;;3.90;;
21301;SDS011;10810;48.270;9.996;2023-03-21T08:41:00;9.70;;;4.00;;
21301;SDS011;10810;48.270;9.996;2023-03-21T08:43:31;8.20;;;3.60;;
21301;SDS011;10810;48.270;9.996;2023-03-21T08:52:54;8.33;;;3.20;;
21301;SDS011;10810;48.270;9.996;2023-03-21T08:55:24;5.43;;;2.67;;
21301;SDS011;10810;48.270;9.996;2023-03-21T09:08:05;5.40;;;2.50;;
21301;SDS011;10810;48.270;9.996;2023-03-21T09:10:32;4.50;;;2.30;;
21301;SDS011;10810;48.270;9.996;2023-03-21T09:12:59;6.83;;;2.83;;
21301;SDS011;10810;48.270;9.996;2023-03-21T09:15:30;7.67;;;2.80;;
21301;SDS011;10810;48.270;9.996;2023-03-21T13:25:22;9.13;;;4.17;;
21301;SDS011;10810;48.270;9.996;2023-03-21T13:28:48;10.67;;;4.13;;
21301;SDS011;10810;48.270;9.996;2023-03-21T13:37:10;9.17;;;4.10;;
21301;SDS011;10810;48.270;9.996;2023-03-21T13:39:13;7.53;;;4.03;;
21301;SDS011;10810;48.270;9.996;2023-03-21T13:42:24;10.27;;;4.20;;
21301;SDS011;10810;48.270;9.996;2023-03-21T13:44:58;8.57;;;3.90;;
21301;SDS011;10810;48.270;9.996;2023-03-21T13:58:49;9.10;;;4.20;;
21301;SDS011;10810;48.270;9.996;2023-03-21T14:01:31;8.07;;;4.10;;
21301;SDS011;10810;48.270;9.996;2023-03-21T14:04:42;8.03;;;4.10;;
21301;SDS011;10810;48.270;9.996;2023-03-21T17:39:17;2.53;;;1.50;;
21301;SDS011;10810;48.270;9.996;2023-03-21T17:42:04;2.77;;;1.43;;
21301;SDS011;10810;48.270;9.996;2023-03-21T17:44:45;4.13;;;1.97;;
21301;SDS011;10810;48.270;9.996;2023-03-21T17:47:14;3.77;;;1.83;;
21301;SDS011;10810;48.270;9.996;2023-03-21T17:53:14;2.73;;;1.80;;
21301;SDS011;10810;48.270;9.996;2023-03-21T17:56:30;3.67;;;1.90;;
21301;SDS011;10810;48.270;9.996;2023-03-21T17:59:20;6.63;;;1.70;;
21301;SDS011;10810;48.270;9.996;2023-03-21T18:02:11;2.97;;;1.60;;
21301;SDS011;10810;48.270;9.996;2023-03-21T18:04:44;6.23;;;1.70;;
21301;SDS011;10810;48.270;9.996;2023-03-21T18:10:44;2.77;;;1.50;;
21301;SDS011;10810;48.270;9.996;2023-03-21T18:13:24;1.77;;;1.20;;
21301;SDS011;10810;48.270;9.996;2023-03-21T18:16:37;4.63;;;1.50;;
21301;SDS011;10810;48.270;9.996;2023-03-21T18:19:04;3.23;;;1.80;;
21301;SDS011;10810;48.270;9.996;2023-03-21T18:22:15;4.87;;;2.00;;
21301;SDS011;10810;48.270;9.996;2023-03-21T18:24:51;3.13;;;1.67;;
21301;SDS011;10810;48.270;9.996;2023-03-21T18:33:57;3.10;;;1.60;;
21301;SDS011;10810;48.270;9.996;2023-03-21T18:37:07;3.73;;;1.80;;
21301;SDS011;10810;48.270;9.996;2023-03-21T18:39:53;4.37;;;1.80;;
21301;SDS011;10810;48.270;9.996;2023-03-21T18:42:41;5.07;;;1.60;;
21301;SDS011;10810;48.270;9.996;2023-03-21T18:45:20;4.40;;;1.93;;
21301;SDS011;10810;48.270;9.996;2023-03-21T18:47:57;4.13;;;1.93;;
21301;SDS011;10810;48.270;9.996;2023-03-21T18:50:38;3.87;;;1.70;;
21301;SDS011;10810;48.270;9.996;2023-03-21T18:53:06;6.40;;;1.90;;
21301;SDS011;10810;48.270;9.996;2023-03-21T18:55:37;3.80;;;1.70;;
21301;SDS011;10810;48.270;9.996;2023-03-21T18:58:08;4.73;;;1.90;;
21301;SDS011;10810;48.270;9.996;2023-03-21T19:00:37;3.93;;;1.87;;
21301;SDS011;10810;48.270;9.996;2023-03-21T19:05:52;3.53;;;1.90;;
21301;SDS011;10810;48.270;9.996;2023-03-21T19:08:41;4.37;;;1.87;;
21301;SDS011;10810;48.270;9.996;2023-03-21T19:11:11;3.20;;;1.60;;
21301;SDS011;10810;48.270;9.996;2023-03-21T19:13:50;3.40;;;1.87;;
21301;SDS011;10810;48.270;9.996;2023-03-21T19:16:32;3.97;;;1.80;;
21301;SDS011;10810;48.270;9.996;2023-03-21T19:19:09;3.73;;;1.70;;
21301;SDS011;10810;48.270;9.996;2023-03-21T19:22:17;3.80;;;1.80;;
21301;SDS011;10810;48.270;9.996;2023-03-21T19:24:49;5.20;;;1.77;;
21301;SDS011;10810;48.270;9.996;2023-03-21T19:27:19;2.90;;;1.60;;
21301;SDS011;10810;48.270;9.996;2023-03-21T19:29:46;4.47;;;1.53;;
21301;SDS011;10810;48.270;9.996;2023-03-21T19:32:13;3.93;;;1.87;;
21301;SDS011;10810;48.270;9.996;2023-03-21T19:34:42;3.87;;;1.80;;
21301;SDS011;10810;48.270;9.996;2023-03-21T19:37:09;2.77;;;1.50;;
21301;SDS011;10810;48.270;9.996;2023-03-21T19:39:36;3.23;;;1.70;;
21301;SDS011;10810;48.270;9.996;2023-03-21T19:42:03;3.87;;;1.80;;
21301;SDS011;10810;48.270;9.996;2023-03-21T19:44:31;3.63;;;1.83;;
21301;SDS011;10810;48.270;9.996;2023-03-21T19:46:59;3.33;;;1.87;;
21301;SDS011;10810;48.270;9.996;2023-03-21T19:49:27;8.20;;;2.13;;
21301;SDS011;10810;48.270;9.996;2023-03-21T19:51:56;4.10;;;2.33;;
21301;SDS011;10810;48.270;9.996;2023-03-21T19:54:23;4.97;;;2.30;;
21301;SDS011;10810;48.270;9.996;2023-03-21T19:56:50;4.97;;;2.20;;
21301;SDS011;10810;48.270;9.996;2023-03-21T19:59:17;5.07;;;2.50;;
21301;SDS011;10810;48.270;9.996;2023-03-21T20:01:44;5.87;;;2.53;;
21301;SDS011;10810;48.270;9.996;2023-03-21T20:04:12;7.47;;;2.70;;
21301;SDS011;10810;48.270;9.996;2023-03-21T20:06:41;6.80;;;2.33;;
21301;SDS011;10810;48.270;9.996;2023-03-21T20:09:10;6.37;;;2.63;;
21301;SDS011;10810;48.270;9.996;2023-03-21T20:11:38;8.77;;;3.63;;
21301;SDS011;10810;48.270;9.996;2023-03-21T20:14:05;7.20;;;3.30;;
21301;SDS011;10810;48.270;9.996;2023-03-21T20:16:32;8.87;;;3.40;;
21301;SDS011;10810;48.270;9.996;2023-03-21T20:19:00;6.37;;;3.30;;
21301;SDS011;10810;48.270;9.996;2023-03-21T20:21:28;7.23;;;3.27;;
21301;SDS011;10810;48.270;9.996;2023-03-21T20:23:55;10.73;;;3.23;;
21301;SDS011;10810;48.270;9.996;2023-03-21T20:26:24;9.23;;;3.20;;
21301;SDS011;10810;48.270;9.996;2023-03-21T20:28:51;8.43;;;3.90;;
21301;SDS011;10810;48.270;9.996;2023-03-21T20:31:22;8.50;;;3.60;;
21301;SDS011;10810;48.270;9.996;2023-03-21T20:33:49;9.40;;;3.77;;
21301;SDS011;10810;48.270;9.996;2023-03-21T20:36:17;9.90;;;3.80;;
21301;SDS011;10810;48.270;9.996;2023-03-21T20:38:46;7.93;;;3.57;;
21301;SDS011;10810;48.270;9.996;2023-03-21T20:41:13;9.73;;;3.67;;
21301;SDS011;10810;48.270;9.996;2023-03-21T20:43:42;7.07;;;3.37;;
21301;SDS011;10810;48.270;9.996;2023-03-21T20:46:10;7.07;;;3.40;;
21301;SDS011;10810;48.270;9.996;2023-03-21T20:48:39;6.57;;;2.97;;
21301;SDS011;10810;48.270;9.996;2023-03-21T20:51:08;7.93;;;3.17;;
21301;SDS011;10810;48.270;9.996;2023-03-21T20:57:15;6.43;;;3.20;;
21301;SDS011;10810;48.270;9.996;2023-03-21T20:59:44;10.70;;;3.07;;
21301;SDS011;10810;48.270;9.996;2023-03-21T21:02:12;6.27;;;3.60;;
21301;SDS011;10810;48.270;9.996;2023-03-21T21:04:39;8.27;;;3.47;;
21301;SDS011;10810;48.270;9.996;2023-03-21T21:07:06;8.63;;;3.47;;
21301;SDS011;10810;48.270;9.996;2023-03-21T21:09:40;8.07;;;3.40;;
21301;SDS011;10810;48.270;9.996;2023-03-21T21:12:08;8.80;;;3.10;;
21301;SDS011;10810;48.270;9.996;2023-03-21T21:14:37;6.77;;;3.20;;
21301;SDS011;10810;48.270;9.996;2023-03-21T21:17:07;7.87;;;3.80;;
21301;SDS011;10810;48.270;9.996;2023-03-21T21:19:36;7.70;;;3.70;;
21301;SDS011;10810;48.270;9.996;2023-03-21T21:22:14;7.97;;;3.90;;
21301;SDS011;10810;48.270;9.996;2023-03-21T21:24:41;7.43;;;3.33;;
21301;SDS011;10810;48.270;9.996;2023-03-21T21:27:11;9.77;;;4.23;;
21301;SDS011;10810;48.270;9.996;2023-03-21T21:29:39;8.73;;;4.10;;
21301;SDS011;10810;48.270;9.996;2023-03-21T21:32:08;8.27;;;3.73;;
21301;SDS011;10810;48.270;9.996;2023-03-21T21:34:36;10.00;;;3.80;;
21301;SDS011;10810;48.270;9.996;2023-03-21T21:37:03;8.60;;;3.60;;
21301;SDS011;10810;48.270;9.996;2023-03-21T21:39:32;9.63;;;4.23;;
21301;SDS011;10810;48.270;9.996;2023-03-21T21:42:01;9.23;;;4.00;;
21301;SDS011;10810;48.270;9.996;2023-03-21T21:44:30;7.97;;;4.00;;
21301;SDS011;10810;48.270;9.996;2023-03-21T21:47:01;8.40;;;3.60;;
21301;SDS011;10810;48.270;9.996;2023-03-21T21:49:35;7.80;;;3.30;;
21301;SDS011;10810;48.270;9.996;2023-03-21T21:52:02;7.43;;;3.67;;
21301;SDS011;10810;48.270;9.996;2023-03-21T21:54:30;8.00;;;3.67;;
21301;SDS011;10810;48.270;9.996;2023-03-21T21:56:58;10.40;;;3.97;;
21301;SDS011;10810;48.270;9.996;2023-03-21T21:59:27;13.67;;;5.00;;
21301;SDS011;10810;48.270;9.996;2023-03-21T22:01:56;17.43;;;6.00;;
21301;SDS011;10810;48.270;9.996;2023-03-21T22:04:26;9.77;;;3.80;;
21301;SDS011;10810;48.270;9.996;2023-03-21T22:06:55;6.07;;;2.63;;
21301;SDS011;10810;48.270;9.996;2023-03-21T22:09:22;6.00;;;2.90;;
21301;SDS011;10810;48.270;9.996;2023-03-21T22:11:50;6.83;;;2.80;;
21301;SDS011;10810;48.270;9.996;2023-03-21T22:14:17;8.33;;;3.70;;
21301;SDS011;10810;48.270;9.996;2023-03-21T22:16:46;10.30;;;4.17;;
21301;SDS011;10810;48.270;9.996;2023-03-21T22:19:15;9.80;;;4.53;;
21301;SDS011;10810;48.270;9.996;2023-03-21T22:21:43;10.10;;;4.10;;
21301;SDS011;10810;48.270;9.996;2023-03-21T22:24:13;9.47;;;4.03;;
21301;SDS011;10810;48.270;9.996;2023-03-21T22:26:41;7.67;;;3.60;;
21301;SDS011;10810;48.270;9.996;2023-03-21T22:29:08;9.33;;;4.17;;
21301;SDS011;10810;48.270;9.996;2023-03-21T22:31:37;8.83;;;3.83;;
21301;SDS011;10810;48.270;9.996;2023-03-21T22:34:11;10.03;;;3.93;;
21301;SDS011;10810;48.270;9.996;2023-03-21T22:36:38;10.67;;;3.90;;
21301;SDS011;10810;48.270;9.996;2023-03-21T22:39:11;8.40;;;3.80;;
21301;SDS011;10810;48.270;9.996;2023-03-21T22:41:39;7.50;;;3.57;;
21301;SDS011;10810;48.270;9.996;2023-03-21T22:44:06;11.13;;;4.20;;
21301;SDS011;10810;48.270;9.996;2023-03-21T22:46:34;9.07;;;4.17;;
21301;SDS011;10810;48.270;9.996;2023-03-21T22:49:03;12.13;;;4.50;;
21301;SDS011;10810;48.270;9.996;2023-03-21T22:51:34;10.03;;;4.40;;
21301;SDS011;10810;48.270;9.996;2023-03-21T22:54:07;7.67;;;3.77;;
21301;SDS011;10810;48.270;9.996;2023-03-21T22:56:41;9.20;;;3.67;;
21301;SDS011;10810;48.270;9.996;2023-03-21T22:59:12;7.43;;;3.90;;
21301;SDS011;10810;48.270;9.996;2023-03-21T23:01:39;12.23;;;4.27;;
21301;SDS011;10810;48.270;9.996;2023-03-21T23:04:08;7.67;;;3.63;;
21301;SDS011;10810;48.270;9.996;2023-03-21T23:06:38;9.43;;;4.13;;
21301;SDS011;10810;48.270;9.996;2023-03-21T23:09:07;9.17;;;4.03;;
21301;SDS011;10810;48.270;9.996;2023-03-21T23:11:36;8.37;;;4.27;;
21301;SDS011;10810;48.270;9.996;2023-03-21T23:14:15;14.37;;;4.07;;
21301;SDS011;10810;48.270;9.996;2023-03-21T23:16:43;9.67;;;4.20;;
21301;SDS011;10810;48.270;9.996;2023-03-21T23:19:12;9.33;;;4.00;;
21301;SDS011;10810;48.270;9.996;2023-03-21T23:21:44;8.70;;;3.87;;
21301;SDS011;10810;48.270;9.996;2023-03-21T23:24:11;10.97;;;4.17;;
21301;SDS011;10810;48.270;9.996;2023-03-21T23:26:40;8.53;;;4.40;;
21301;SDS011;10810;48.270;9.996;2023-03-21T23:29:07;10.47;;;4.10;;
21301;SDS011;10810;48.270;9.996;2023-03-21T23:31:39;8.80;;;3.70;;
21301;SDS011;10810;48.270;9.996;2023-03-21T23:34:06;8.97;;;4.23;;
21301;SDS011;10810;48.270;9.996;2023-03-21T23:36:33;7.60;;;3.40;;
21301;SDS011;10810;48.270;9.996;2023-03-21T23:39:03;9.90;;;4.40;;
21301;SDS011;10810;48.270;9.996;2023-03-21T23:41:32;9.97;;;4.13;;
21301;SDS011;10810;48.270;9.996;2023-03-21T23:44:07;9.73;;;4.07;;
21301;SDS011;10810;48.270;9.996;2023-03-21T23:46:34;10.17;;;4.10;;
21301;SDS011;10810;48.270;9.996;2023-03-21T23:49:02;13.00;;;5.20;;
21301;SDS011;10810;48.270;9.996;2023-03-21T23:51:30;11.43;;;4.80;;
21301;SDS011;10810;48.270;9.996;2023-03-21T23:53:57;10.50;;;4.80;;
21301;SDS011;10810;48.270;9.996;2023-03-21T23:56:24;12.03;;;5.03;;